sensor_id;sensor_type;location;lat;lon;timestamp;temperature;humidity
19880;DHT22;10102;50.828;4.416;2023-07-31T00:00:38;18.50;99.90
19880;DHT22;10102;50.828;4.416;2023-07-31T00:03:04;18.20;99.90
19880;DHT22;10102;50.828;4.416;2023-07-31T00:05:29;18.20;99.90
19880;DHT22;10102;50.828;4.416;2023-07-31T00:07:55;18.20;99.90
19880;DHT22;10102;50.828;4.416;2023-07-31T00:10:21;18.20;99.90
19880;DHT22;10102;50.828;4.416;2023-07-31T00:12:46;18.40;99.90
19880;DHT22;10102;50.828;4.416;2023-07-31T00:15:13;18.30;99.90
19880;DHT22;10102;50.828;4.416;2023-07-31T00:17:40;18.60;99.90
19880;DHT22;10102;50.828;4.416;2023-07-31T00:20:06;18.40;99.90
19880;DHT22;10102;50.828;4.416;2023-07-31T00:22:31;18.40;99.90
19880;DHT22;10102;50.828;4.416;2023-07-31T00:24:57;18.30;99.90
19880;DHT22;10102;50.828;4.416;2023-07-31T00:27:23;18.30;99.90
19880;DHT22;10102;50.828;4.416;2023-07-31T00:29:49;18.30;99.90
19880;DHT22;10102;50.828;4.416;2023-07-31T00:32:15;18.30;99.90
19880;DHT22;10102;50.828;4.416;2023-07-31T00:34:40;18.30;99.90
19880;DHT22;10102;50.828;4.416;2023-07-31T00:37:06;18.70;99.90
19880;DHT22;10102;50.828;4.416;2023-07-31T00:39:34;18.40;99.90
19880;DHT22;10102;50.828;4.416;2023-07-31T00:42:00;18.40;99.90
19880;DHT22;10102;50.828;4.416;2023-07-31T00:44:25;18.40;99.90
19880;DHT22;10102;50.828;4.416;2023-07-31T00:46:51;18.30;99.90
19880;DHT22;10102;50.828;4.416;2023-07-31T00:49:18;18.50;99.90
19880;DHT22;10102;50.828;4.416;2023-07-31T00:54:10;18.30;99.90
19880;DHT22;10102;50.828;4.416;2023-07-31T00:56:36;18.30;99.90
19880;DHT22;10102;50.828;4.416;2023-07-31T00:59:02;18.40;99.90
19880;DHT22;10102;50.828;4.416;2023-07-31T01:01:28;18.20;99.90
19880;DHT22;10102;50.828;4.416;2023-07-31T01:03:53;18.20;99.90
19880;DHT22;10102;50.828;4.416;2023-07-31T01:06:44;18.30;99.90
19880;DHT22;10102;50.828;4.416;2023-07-31T01:09:43;18.10;99.90
19880;DHT22;10102;50.828;4.416;2023-07-31T01:19:08;18.20;99.90
19880;DHT22;10102;50.828;4.416;2023-07-31T01:26:34;18.20;99.90
19880;DHT22;10102;50.828;4.416;2023-07-31T01:29:03;18.30;99.90
19880;DHT22;10102;50.828;4.416;2023-07-31T01:31:32;18.30;99.90
19880;DHT22;10102;50.828;4.416;2023-07-31T01:34:01;18.40;99.90
19880;DHT22;10102;50.828;4.416;2023-07-31T01:36:28;18.30;99.90
19880;DHT22;10102;50.828;4.416;2023-07-31T01:38:58;18.40;99.90
19880;DHT22;10102;50.828;4.416;2023-07-31T01:41:25;18.30;99.90
19880;DHT22;10102;50.828;4.416;2023-07-31T01:43:50;18.20;99.90
19880;DHT22;10102;50.828;4.416;2023-07-31T01:46:16;18.30;99.90
19880;DHT22;10102;50.828;4.416;2023-07-31T01:48:41;18.20;99.90
19880;DHT22;10102;50.828;4.416;2023-07-31T01:51:07;18.20;99.90
19880;DHT22;10102;50.828;4.416;2023-07-31T01:53:33;18.20;99.90
19880;DHT22;10102;50.828;4.416;2023-07-31T01:55:59;17.90;99.90
19880;DHT22;10102;50.828;4.416;2023-07-31T01:58:24;18.20;99.90
19880;DHT22;10102;50.828;4.416;2023-07-31T02:00:50;15.70;99.90
19880;DHT22;10102;50.828;4.416;2023-07-31T02:03:16;18.20;99.90
19880;DHT22;10102;50.828;4.416;2023-07-31T02:05:49;18.20;99.90
19880;DHT22;10102;50.828;4.416;2023-07-31T02:08:15;18.30;99.90
19880;DHT22;10102;50.828;4.416;2023-07-31T02:10:41;18.40;99.90
19880;DHT22;10102;50.828;4.416;2023-07-31T02:13:07;18.20;99.90
19880;DHT22;10102;50.828;4.416;2023-07-31T02:15:32;18.60;99.90
19880;DHT22;10102;50.828;4.416;2023-07-31T02:17:58;18.40;99.90
19880;DHT22;10102;50.828;4.416;2023-07-31T02:20:24;18.50;99.90
19880;DHT22;10102;50.828;4.416;2023-07-31T02:22:50;18.30;99.90
19880;DHT22;10102;50.828;4.416;2023-07-31T02:25:15;18.30;99.90
19880;DHT22;10102;50.828;4.416;2023-07-31T02:27:41;18.40;99.90
19880;DHT22;10102;50.828;4.416;2023-07-31T02:30:07;18.50;99.90
19880;DHT22;10102;50.828;4.416;2023-07-31T02:32:33;18.40;99.90
19880;DHT22;10102;50.828;4.416;2023-07-31T02:34:59;18.30;99.90
19880;DHT22;10102;50.828;4.416;2023-07-31T02:37:25;18.50;99.90
19880;DHT22;10102;50.828;4.416;2023-07-31T02:39:51;18.40;99.90
19880;DHT22;10102;50.828;4.416;2023-07-31T02:42:16;18.40;99.90
19880;DHT22;10102;50.828;4.416;2023-07-31T02:44:42;18.20;99.90
19880;DHT22;10102;50.828;4.416;2023-07-31T02:47:08;18.30;99.90
19880;DHT22;10102;50.828;4.416;2023-07-31T02:49:33;18.30;99.90
19880;DHT22;10102;50.828;4.416;2023-07-31T02:51:59;18.30;99.90
19880;DHT22;10102;50.828;4.416;2023-07-31T02:54:25;18.30;99.90
19880;DHT22;10102;50.828;4.416;2023-07-31T02:56:50;18.50;99.90
19880;DHT22;10102;50.828;4.416;2023-07-31T02:59:17;18.40;99.90
19880;DHT22;10102;50.828;4.416;2023-07-31T03:01:43;18.30;99.90
19880;DHT22;10102;50.828;4.416;2023-07-31T03:04:08;18.40;99.90
19880;DHT22;10102;50.828;4.416;2023-07-31T03:06:34;18.30;99.90
19880;DHT22;10102;50.828;4.416;2023-07-31T03:09:00;18.20;99.90
19880;DHT22;10102;50.828;4.416;2023-07-31T03:11:25;18.30;99.90
19880;DHT22;10102;50.828;4.416;2023-07-31T03:13:51;18.40;99.90
19880;DHT22;10102;50.828;4.416;2023-07-31T03:16:17;18.20;99.90
19880;DHT22;10102;50.828;4.416;2023-07-31T03:18:43;18.40;99.90
19880;DHT22;10102;50.828;4.416;2023-07-31T03:21:09;18.30;99.90
19880;DHT22;10102;50.828;4.416;2023-07-31T03:23:34;18.30;99.90
19880;DHT22;10102;50.828;4.416;2023-07-31T03:26:01;18.30;99.90
19880;DHT22;10102;50.828;4.416;2023-07-31T03:28:29;18.40;99.90
19880;DHT22;10102;50.828;4.416;2023-07-31T03:30:55;18.20;99.90
19880;DHT22;10102;50.828;4.416;2023-07-31T03:33:21;18.10;99.90
19880;DHT22;10102;50.828;4.416;2023-07-31T03:35:47;18.20;99.90
19880;DHT22;10102;50.828;4.416;2023-07-31T03:38:13;18.30;99.90
19880;DHT22;10102;50.828;4.416;2023-07-31T03:40:38;18.10;99.90
19880;DHT22;10102;50.828;4.416;2023-07-31T03:43:05;18.00;99.90
19880;DHT22;10102;50.828;4.416;2023-07-31T03:45:31;18.20;99.90
19880;DHT22;10102;50.828;4.416;2023-07-31T03:47:56;18.20;99.90
19880;DHT22;10102;50.828;4.416;2023-07-31T03:50:22;18.00;99.90
19880;DHT22;10102;50.828;4.416;2023-07-31T03:52:48;18.10;99.90
19880;DHT22;10102;50.828;4.416;2023-07-31T03:55:14;17.80;99.90
19880;DHT22;10102;50.828;4.416;2023-07-31T03:57:39;17.70;99.90
19880;DHT22;10102;50.828;4.416;2023-07-31T04:00:05;17.80;99.90
19880;DHT22;10102;50.828;4.416;2023-07-31T04:02:31;17.60;99.90
19880;DHT22;10102;50.828;4.416;2023-07-31T04:04:57;17.70;99.90
19880;DHT22;10102;50.828;4.416;2023-07-31T04:07:22;17.70;99.90
19880;DHT22;10102;50.828;4.416;2023-07-31T04:09:48;17.60;99.90
19880;DHT22;10102;50.828;4.416;2023-07-31T04:12:14;17.70;99.90
19880;DHT22;10102;50.828;4.416;2023-07-31T04:14:39;17.70;99.90
19880;DHT22;10102;50.828;4.416;2023-07-31T04:17:05;17.50;99.90
19880;DHT22;10102;50.828;4.416;2023-07-31T04:19:31;17.50;99.90
19880;DHT22;10102;50.828;4.416;2023-07-31T04:21:56;17.40;99.90
19880;DHT22;10102;50.828;4.416;2023-07-31T04:24:22;17.60;99.90
19880;DHT22;10102;50.828;4.416;2023-07-31T04:26:53;17.40;99.90
19880;DHT22;10102;50.828;4.416;2023-07-31T04:29:19;17.50;99.90
19880;DHT22;10102;50.828;4.416;2023-07-31T04:31:45;17.60;99.90
19880;DHT22;10102;50.828;4.416;2023-07-31T04:34:11;17.40;99.90
19880;DHT22;10102;50.828;4.416;2023-07-31T04:36:39;17.50;99.90
19880;DHT22;10102;50.828;4.416;2023-07-31T04:39:05;17.60;99.90
19880;DHT22;10102;50.828;4.416;2023-07-31T04:41:31;17.60;99.90
19880;DHT22;10102;50.828;4.416;2023-07-31T04:43:57;17.50;99.90
19880;DHT22;10102;50.828;4.416;2023-07-31T04:46:22;17.50;99.90
19880;DHT22;10102;50.828;4.416;2023-07-31T04:48:48;17.70;99.90
19880;DHT22;10102;50.828;4.416;2023-07-31T04:51:14;17.60;99.90
19880;DHT22;10102;50.828;4.416;2023-07-31T04:53:39;17.70;99.90
19880;DHT22;10102;50.828;4.416;2023-07-31T04:56:05;17.60;99.90
19880;DHT22;10102;50.828;4.416;2023-07-31T04:58:31;17.70;99.90
19880;DHT22;10102;50.828;4.416;2023-07-31T05:00:56;17.60;99.90
19880;DHT22;10102;50.828;4.416;2023-07-31T05:03:22;17.40;99.90
19880;DHT22;10102;50.828;4.416;2023-07-31T05:05:48;17.40;99.90
19880;DHT22;10102;50.828;4.416;2023-07-31T05:08:13;17.40;99.90
19880;DHT22;10102;50.828;4.416;2023-07-31T05:10:39;17.30;99.90
19880;DHT22;10102;50.828;4.416;2023-07-31T05:13:05;17.40;99.90
19880;DHT22;10102;50.828;4.416;2023-07-31T05:15:31;17.40;99.90
19880;DHT22;10102;50.828;4.416;2023-07-31T05:20:22;17.40;99.90
19880;DHT22;10102;50.828;4.416;2023-07-31T05:22:48;17.50;99.90
19880;DHT22;10102;50.828;4.416;2023-07-31T05:25:14;17.30;99.90
19880;DHT22;10102;50.828;4.416;2023-07-31T05:27:39;17.30;99.90
19880;DHT22;10102;50.828;4.416;2023-07-31T05:30:05;17.40;99.90
19880;DHT22;10102;50.828;4.416;2023-07-31T05:32:32;17.30;99.90
19880;DHT22;10102;50.828;4.416;2023-07-31T05:37:23;17.10;99.90
19880;DHT22;10102;50.828;4.416;2023-07-31T05:39:49;17.40;99.90
19880;DHT22;10102;50.828;4.416;2023-07-31T05:42:15;17.30;99.90
19880;DHT22;10102;50.828;4.416;2023-07-31T05:44:40;17.30;99.90
19880;DHT22;10102;50.828;4.416;2023-07-31T05:47:06;17.20;99.90
19880;DHT22;10102;50.828;4.416;2023-07-31T05:49:32;17.30;99.90
19880;DHT22;10102;50.828;4.416;2023-07-31T05:51:57;17.30;99.90
19880;DHT22;10102;50.828;4.416;2023-07-31T05:54:24;17.40;99.90
19880;DHT22;10102;50.828;4.416;2023-07-31T05:56:50;17.30;99.90
19880;DHT22;10102;50.828;4.416;2023-07-31T05:59:16;17.30;99.90
19880;DHT22;10102;50.828;4.416;2023-07-31T06:01:42;17.20;99.90
19880;DHT22;10102;50.828;4.416;2023-07-31T06:04:07;17.40;99.90
19880;DHT22;10102;50.828;4.416;2023-07-31T06:06:33;17.50;99.90
19880;DHT22;10102;50.828;4.416;2023-07-31T06:08:59;17.40;99.90
19880;DHT22;10102;50.828;4.416;2023-07-31T06:11:25;17.50;99.90
19880;DHT22;10102;50.828;4.416;2023-07-31T06:13:51;17.70;99.90
19880;DHT22;10102;50.828;4.416;2023-07-31T06:16:18;17.50;99.90
19880;DHT22;10102;50.828;4.416;2023-07-31T06:18:43;17.60;99.90
19880;DHT22;10102;50.828;4.416;2023-07-31T06:21:10;17.60;99.90
19880;DHT22;10102;50.828;4.416;2023-07-31T06:23:37;17.70;99.90
19880;DHT22;10102;50.828;4.416;2023-07-31T06:26:02;17.80;99.90
19880;DHT22;10102;50.828;4.416;2023-07-31T06:28:29;17.70;99.90
19880;DHT22;10102;50.828;4.416;2023-07-31T06:30:55;17.90;99.90
19880;DHT22;10102;50.828;4.416;2023-07-31T06:35:47;17.90;99.90
19880;DHT22;10102;50.828;4.416;2023-07-31T06:38:12;17.80;99.90
19880;DHT22;10102;50.828;4.416;2023-07-31T06:40:38;18.00;99.90
19880;DHT22;10102;50.828;4.416;2023-07-31T06:43:04;17.90;99.90
19880;DHT22;10102;50.828;4.416;2023-07-31T06:45:37;17.90;99.90
19880;DHT22;10102;50.828;4.416;2023-07-31T06:48:03;18.00;99.90
19880;DHT22;10102;50.828;4.416;2023-07-31T06:50:30;18.00;99.90
19880;DHT22;10102;50.828;4.416;2023-07-31T06:52:56;18.10;99.90
19880;DHT22;10102;50.828;4.416;2023-07-31T06:55:23;18.10;99.90
19880;DHT22;10102;50.828;4.416;2023-07-31T06:57:50;18.40;99.90
19880;DHT22;10102;50.828;4.416;2023-07-31T07:00:17;18.40;99.90
19880;DHT22;10102;50.828;4.416;2023-07-31T07:02:43;18.50;99.90
19880;DHT22;10102;50.828;4.416;2023-07-31T07:05:10;18.50;99.90
19880;DHT22;10102;50.828;4.416;2023-07-31T07:07:36;18.70;99.90
19880;DHT22;10102;50.828;4.416;2023-07-31T07:10:02;18.90;99.90
19880;DHT22;10102;50.828;4.416;2023-07-31T07:12:30;18.70;99.90
19880;DHT22;10102;50.828;4.416;2023-07-31T07:14:56;18.80;99.90
19880;DHT22;10102;50.828;4.416;2023-07-31T07:17:23;19.00;99.90
19880;DHT22;10102;50.828;4.416;2023-07-31T07:19:48;19.00;99.90
19880;DHT22;10102;50.828;4.416;2023-07-31T07:22:14;18.90;99.90
19880;DHT22;10102;50.828;4.416;2023-07-31T07:24:40;18.70;99.90
19880;DHT22;10102;50.828;4.416;2023-07-31T07:27:06;19.00;99.90
19880;DHT22;10102;50.828;4.416;2023-07-31T07:29:34;19.00;99.90
19880;DHT22;10102;50.828;4.416;2023-07-31T07:31:59;18.90;99.90
19880;DHT22;10102;50.828;4.416;2023-07-31T07:34:28;18.70;99.90
19880;DHT22;10102;50.828;4.416;2023-07-31T07:36:54;18.70;99.90
19880;DHT22;10102;50.828;4.416;2023-07-31T07:39:20;18.90;99.90
19880;DHT22;10102;50.828;4.416;2023-07-31T07:41:47;18.70;99.90
19880;DHT22;10102;50.828;4.416;2023-07-31T07:44:13;18.70;99.90
19880;DHT22;10102;50.828;4.416;2023-07-31T07:46:39;19.10;99.90
19880;DHT22;10102;50.828;4.416;2023-07-31T07:49:05;19.10;99.90
19880;DHT22;10102;50.828;4.416;2023-07-31T07:51:31;19.20;99.90
19880;DHT22;10102;50.828;4.416;2023-07-31T07:54:00;19.00;99.90
19880;DHT22;10102;50.828;4.416;2023-07-31T07:56:27;19.00;99.90
19880;DHT22;10102;50.828;4.416;2023-07-31T07:58:53;19.20;99.90
19880;DHT22;10102;50.828;4.416;2023-07-31T08:01:19;19.20;99.90
19880;DHT22;10102;50.828;4.416;2023-07-31T08:03:46;19.10;99.90
19880;DHT22;10102;50.828;4.416;2023-07-31T08:06:12;19.30;99.90
19880;DHT22;10102;50.828;4.416;2023-07-31T08:08:39;19.20;99.90
19880;DHT22;10102;50.828;4.416;2023-07-31T08:11:05;19.20;99.90
19880;DHT22;10102;50.828;4.416;2023-07-31T08:13:30;19.00;99.90
19880;DHT22;10102;50.828;4.416;2023-07-31T08:18:22;19.10;99.90
19880;DHT22;10102;50.828;4.416;2023-07-31T08:20:48;19.20;99.90
19880;DHT22;10102;50.828;4.416;2023-07-31T08:23:14;19.10;99.90
19880;DHT22;10102;50.828;4.416;2023-07-31T08:28:06;19.50;99.90
19880;DHT22;10102;50.828;4.416;2023-07-31T08:30:32;19.30;99.90
19880;DHT22;10102;50.828;4.416;2023-07-31T08:33:01;19.10;99.90
19880;DHT22;10102;50.828;4.416;2023-07-31T08:37:55;18.90;99.90
19880;DHT22;10102;50.828;4.416;2023-07-31T08:40:21;18.70;99.90
19880;DHT22;10102;50.828;4.416;2023-07-31T08:42:49;18.80;99.90
19880;DHT22;10102;50.828;4.416;2023-07-31T08:45:17;19.00;99.90
19880;DHT22;10102;50.828;4.416;2023-07-31T08:47:48;19.00;99.90
19880;DHT22;10102;50.828;4.416;2023-07-31T08:50:16;19.00;99.90
19880;DHT22;10102;50.828;4.416;2023-07-31T08:52:42;19.00;99.90
19880;DHT22;10102;50.828;4.416;2023-07-31T08:55:08;19.00;99.90
19880;DHT22;10102;50.828;4.416;2023-07-31T08:57:37;18.90;99.90
19880;DHT22;10102;50.828;4.416;2023-07-31T09:00:04;19.40;99.90
19880;DHT22;10102;50.828;4.416;2023-07-31T09:02:55;19.20;99.90
19880;DHT22;10102;50.828;4.416;2023-07-31T09:05:21;19.20;99.90
19880;DHT22;10102;50.828;4.416;2023-07-31T09:07:48;19.20;99.90
19880;DHT22;10102;50.828;4.416;2023-07-31T09:10:15;19.20;99.90
19880;DHT22;10102;50.828;4.416;2023-07-31T09:12:40;19.20;99.90
19880;DHT22;10102;50.828;4.416;2023-07-31T09:17:35;19.10;99.90
19880;DHT22;10102;50.828;4.416;2023-07-31T09:22:39;19.50;99.90
19880;DHT22;10102;50.828;4.416;2023-07-31T09:25:21;19.50;99.90
19880;DHT22;10102;50.828;4.416;2023-07-31T09:27:49;19.60;99.90
19880;DHT22;10102;50.828;4.416;2023-07-31T09:30:16;19.90;99.90
19880;DHT22;10102;50.828;4.416;2023-07-31T09:32:43;20.00;99.90
19880;DHT22;10102;50.828;4.416;2023-07-31T09:35:19;19.80;99.90
19880;DHT22;10102;50.828;4.416;2023-07-31T09:37:53;19.80;99.90
19880;DHT22;10102;50.828;4.416;2023-07-31T09:43:02;19.40;99.90
19880;DHT22;10102;50.828;4.416;2023-07-31T09:45:29;19.50;99.90
19880;DHT22;10102;50.828;4.416;2023-07-31T09:47:56;19.40;99.90
19880;DHT22;10102;50.828;4.416;2023-07-31T09:50:25;19.60;99.90
19880;DHT22;10102;50.828;4.416;2023-07-31T09:52:52;19.80;99.90
19880;DHT22;10102;50.828;4.416;2023-07-31T09:55:18;19.70;99.90
19880;DHT22;10102;50.828;4.416;2023-07-31T09:57:46;19.80;99.90
19880;DHT22;10102;50.828;4.416;2023-07-31T10:00:13;19.80;99.90
19880;DHT22;10102;50.828;4.416;2023-07-31T10:02:40;19.90;99.90
19880;DHT22;10102;50.828;4.416;2023-07-31T10:05:07;20.00;99.90
19880;DHT22;10102;50.828;4.416;2023-07-31T10:07:37;19.50;99.90
19880;DHT22;10102;50.828;4.416;2023-07-31T10:10:07;19.60;99.90
19880;DHT22;10102;50.828;4.416;2023-07-31T10:12:34;19.60;99.90
19880;DHT22;10102;50.828;4.416;2023-07-31T10:15:01;19.90;99.90
19880;DHT22;10102;50.828;4.416;2023-07-31T10:17:27;19.80;99.90
19880;DHT22;10102;50.828;4.416;2023-07-31T10:19:54;20.00;99.90
19880;DHT22;10102;50.828;4.416;2023-07-31T10:22:21;20.30;99.90
19880;DHT22;10102;50.828;4.416;2023-07-31T10:24:48;20.20;99.90
19880;DHT22;10102;50.828;4.416;2023-07-31T10:27:14;20.30;99.90
19880;DHT22;10102;50.828;4.416;2023-07-31T10:29:41;20.50;99.90
19880;DHT22;10102;50.828;4.416;2023-07-31T10:32:09;20.70;99.90
19880;DHT22;10102;50.828;4.416;2023-07-31T10:34:39;20.40;99.90
19880;DHT22;10102;50.828;4.416;2023-07-31T10:37:25;20.30;99.90
19880;DHT22;10102;50.828;4.416;2023-07-31T10:45:14;19.90;99.90
19880;DHT22;10102;50.828;4.416;2023-07-31T10:47:48;20.00;99.90
19880;DHT22;10102;50.828;4.416;2023-07-31T10:50:21;20.10;99.90
19880;DHT22;10102;50.828;4.416;2023-07-31T10:52:51;20.10;99.90
19880;DHT22;10102;50.828;4.416;2023-07-31T10:57:49;20.00;99.90
19880;DHT22;10102;50.828;4.416;2023-07-31T11:00:27;20.20;99.90
19880;DHT22;10102;50.828;4.416;2023-07-31T11:08:27;20.60;99.90
19880;DHT22;10102;50.828;4.416;2023-07-31T11:13:33;20.30;99.90
19880;DHT22;10102;50.828;4.416;2023-07-31T11:16:00;20.70;99.90
19880;DHT22;10102;50.828;4.416;2023-07-31T11:18:26;20.50;99.90
19880;DHT22;10102;50.828;4.416;2023-07-31T11:20:52;20.70;99.90
19880;DHT22;10102;50.828;4.416;2023-07-31T11:23:19;20.60;99.90
19880;DHT22;10102;50.828;4.416;2023-07-31T11:25:45;20.80;99.90
19880;DHT22;10102;50.828;4.416;2023-07-31T11:28:13;20.70;99.90
19880;DHT22;10102;50.828;4.416;2023-07-31T11:30:40;20.70;99.90
19880;DHT22;10102;50.828;4.416;2023-07-31T11:33:07;20.70;99.90
19880;DHT22;10102;50.828;4.416;2023-07-31T11:35:35;20.80;99.90
19880;DHT22;10102;50.828;4.416;2023-07-31T11:38:01;20.90;99.90
19880;DHT22;10102;50.828;4.416;2023-07-31T11:40:27;21.10;99.90
19880;DHT22;10102;50.828;4.416;2023-07-31T11:43:02;21.10;99.90
19880;DHT22;10102;50.828;4.416;2023-07-31T11:45:30;21.00;99.90
19880;DHT22;10102;50.828;4.416;2023-07-31T11:47:56;20.80;99.90
19880;DHT22;10102;50.828;4.416;2023-07-31T11:50:25;20.70;99.90
19880;DHT22;10102;50.828;4.416;2023-07-31T11:53:00;20.70;99.90
19880;DHT22;10102;50.828;4.416;2023-07-31T11:55:26;20.80;99.90
19880;DHT22;10102;50.828;4.416;2023-07-31T11:57:53;20.90;99.90
19880;DHT22;10102;50.828;4.416;2023-07-31T12:00:19;21.10;99.90
19880;DHT22;10102;50.828;4.416;2023-07-31T12:02:46;21.20;99.90
19880;DHT22;10102;50.828;4.416;2023-07-31T12:05:12;21.20;99.90
19880;DHT22;10102;50.828;4.416;2023-07-31T12:07:51;21.20;99.90
19880;DHT22;10102;50.828;4.416;2023-07-31T12:10:31;21.50;99.90
19880;DHT22;10102;50.828;4.416;2023-07-31T12:15:43;22.00;99.90
19880;DHT22;10102;50.828;4.416;2023-07-31T12:18:12;21.70;99.90
19880;DHT22;10102;50.828;4.416;2023-07-31T12:20:49;21.80;99.90
19880;DHT22;10102;50.828;4.416;2023-07-31T12:23:37;21.70;99.90
19880;DHT22;10102;50.828;4.416;2023-07-31T12:26:14;21.30;99.90
19880;DHT22;10102;50.828;4.416;2023-07-31T12:28:48;21.30;99.90
19880;DHT22;10102;50.828;4.416;2023-07-31T12:31:18;21.40;99.90
19880;DHT22;10102;50.828;4.416;2023-07-31T12:33:45;21.10;99.90
19880;DHT22;10102;50.828;4.416;2023-07-31T12:36:14;21.10;99.90
19880;DHT22;10102;50.828;4.416;2023-07-31T12:38:40;21.40;99.90
19880;DHT22;10102;50.828;4.416;2023-07-31T12:41:06;21.10;99.90
19880;DHT22;10102;50.828;4.416;2023-07-31T12:43:35;21.20;99.90
19880;DHT22;10102;50.828;4.416;2023-07-31T12:46:01;21.30;99.90
19880;DHT22;10102;50.828;4.416;2023-07-31T12:48:27;21.40;99.90
19880;DHT22;10102;50.828;4.416;2023-07-31T12:50:52;21.80;99.90
19880;DHT22;10102;50.828;4.416;2023-07-31T12:53:18;21.70;99.90
19880;DHT22;10102;50.828;4.416;2023-07-31T12:55:44;21.60;99.90
19880;DHT22;10102;50.828;4.416;2023-07-31T12:58:09;21.40;99.90
19880;DHT22;10102;50.828;4.416;2023-07-31T13:00:35;21.20;99.90
19880;DHT22;10102;50.828;4.416;2023-07-31T13:03:01;21.00;99.90
19880;DHT22;10102;50.828;4.416;2023-07-31T13:05:28;20.90;99.90
19880;DHT22;10102;50.828;4.416;2023-07-31T13:07:53;20.80;99.90
19880;DHT22;10102;50.828;4.416;2023-07-31T13:10:20;20.80;99.90
19880;DHT22;10102;50.828;4.416;2023-07-31T13:12:45;20.80;99.90
19880;DHT22;10102;50.828;4.416;2023-07-31T13:15:12;20.60;99.90
19880;DHT22;10102;50.828;4.416;2023-07-31T13:17:38;20.80;99.90
19880;DHT22;10102;50.828;4.416;2023-07-31T13:20:04;20.70;99.90
19880;DHT22;10102;50.828;4.416;2023-07-31T13:22:30;20.70;99.90
19880;DHT22;10102;50.828;4.416;2023-07-31T13:24:56;20.50;99.90
19880;DHT22;10102;50.828;4.416;2023-07-31T13:27:22;20.50;99.90
19880;DHT22;10102;50.828;4.416;2023-07-31T13:29:48;20.40;99.90
19880;DHT22;10102;50.828;4.416;2023-07-31T13:32:15;20.30;99.90
19880;DHT22;10102;50.828;4.416;2023-07-31T13:34:40;20.00;99.90
19880;DHT22;10102;50.828;4.416;2023-07-31T13:37:06;20.00;99.90
19880;DHT22;10102;50.828;4.416;2023-07-31T13:39:32;19.80;99.90
19880;DHT22;10102;50.828;4.416;2023-07-31T13:41:59;19.70;99.90
19880;DHT22;10102;50.828;4.416;2023-07-31T13:44:24;19.50;99.90
19880;DHT22;10102;50.828;4.416;2023-07-31T13:46:50;19.50;99.90
19880;DHT22;10102;50.828;4.416;2023-07-31T13:49:16;19.40;99.90
19880;DHT22;10102;50.828;4.416;2023-07-31T13:51:42;19.40;99.90
19880;DHT22;10102;50.828;4.416;2023-07-31T13:54:07;19.30;99.90
19880;DHT22;10102;50.828;4.416;2023-07-31T13:56:33;19.30;99.90
19880;DHT22;10102;50.828;4.416;2023-07-31T13:58:59;19.10;99.90
19880;DHT22;10102;50.828;4.416;2023-07-31T14:01:26;19.00;99.90
19880;DHT22;10102;50.828;4.416;2023-07-31T14:03:52;19.00;99.90
19880;DHT22;10102;50.828;4.416;2023-07-31T14:06:17;18.80;99.90
19880;DHT22;10102;50.828;4.416;2023-07-31T14:08:43;18.80;99.90
19880;DHT22;10102;50.828;4.416;2023-07-31T14:11:09;18.80;99.90
19880;DHT22;10102;50.828;4.416;2023-07-31T14:13:34;18.70;99.90
19880;DHT22;10102;50.828;4.416;2023-07-31T14:16:00;18.90;99.90
19880;DHT22;10102;50.828;4.416;2023-07-31T14:18:26;18.70;99.90
19880;DHT22;10102;50.828;4.416;2023-07-31T14:20:51;18.70;99.90
19880;DHT22;10102;50.828;4.416;2023-07-31T14:23:17;18.70;99.90
19880;DHT22;10102;50.828;4.416;2023-07-31T14:25:43;18.80;99.90
19880;DHT22;10102;50.828;4.416;2023-07-31T14:28:08;18.80;99.90
19880;DHT22;10102;50.828;4.416;2023-07-31T14:30:34;18.90;99.90
19880;DHT22;10102;50.828;4.416;2023-07-31T14:33:00;18.80;99.90
19880;DHT22;10102;50.828;4.416;2023-07-31T14:35:26;18.90;99.90
19880;DHT22;10102;50.828;4.416;2023-07-31T14:37:52;18.90;99.90
19880;DHT22;10102;50.828;4.416;2023-07-31T14:40:17;18.90;99.90
19880;DHT22;10102;50.828;4.416;2023-07-31T14:42:43;18.90;99.90
19880;DHT22;10102;50.828;4.416;2023-07-31T14:45:09;18.90;99.90
19880;DHT22;10102;50.828;4.416;2023-07-31T14:47:36;18.90;99.90
19880;DHT22;10102;50.828;4.416;2023-07-31T14:50:01;18.70;99.90
19880;DHT22;10102;50.828;4.416;2023-07-31T14:52:28;18.80;99.90
19880;DHT22;10102;50.828;4.416;2023-07-31T14:54:54;19.00;99.90
19880;DHT22;10102;50.828;4.416;2023-07-31T14:57:19;18.90;99.90
19880;DHT22;10102;50.828;4.416;2023-07-31T14:59:46;18.90;99.90
19880;DHT22;10102;50.828;4.416;2023-07-31T15:02:12;19.00;99.90
19880;DHT22;10102;50.828;4.416;2023-07-31T15:04:37;18.80;99.90
19880;DHT22;10102;50.828;4.416;2023-07-31T15:07:03;18.80;99.90
19880;DHT22;10102;50.828;4.416;2023-07-31T15:09:29;18.70;99.90
19880;DHT22;10102;50.828;4.416;2023-07-31T15:11:56;18.80;99.90
19880;DHT22;10102;50.828;4.416;2023-07-31T15:14:22;18.90;99.90
19880;DHT22;10102;50.828;4.416;2023-07-31T15:16:48;18.80;99.90
19880;DHT22;10102;50.828;4.416;2023-07-31T15:19:14;19.00;99.90
19880;DHT22;10102;50.828;4.416;2023-07-31T15:21:40;19.00;99.90
19880;DHT22;10102;50.828;4.416;2023-07-31T15:24:06;18.80;99.90
19880;DHT22;10102;50.828;4.416;2023-07-31T15:26:32;18.90;99.90
19880;DHT22;10102;50.828;4.416;2023-07-31T15:29:04;19.00;99.90
19880;DHT22;10102;50.828;4.416;2023-07-31T15:31:43;19.00;99.90
19880;DHT22;10102;50.828;4.416;2023-07-31T15:34:08;19.20;99.90
19880;DHT22;10102;50.828;4.416;2023-07-31T15:36:34;18.90;99.90
19880;DHT22;10102;50.828;4.416;2023-07-31T15:39:00;18.90;99.90
19880;DHT22;10102;50.828;4.416;2023-07-31T15:41:25;18.80;99.90
19880;DHT22;10102;50.828;4.416;2023-07-31T15:43:51;18.80;99.90
19880;DHT22;10102;50.828;4.416;2023-07-31T15:46:17;18.60;99.90
19880;DHT22;10102;50.828;4.416;2023-07-31T15:48:44;18.70;99.90
19880;DHT22;10102;50.828;4.416;2023-07-31T15:51:10;18.70;99.90
19880;DHT22;10102;50.828;4.416;2023-07-31T15:53:35;18.60;99.90
19880;DHT22;10102;50.828;4.416;2023-07-31T15:56:01;18.60;99.90
19880;DHT22;10102;50.828;4.416;2023-07-31T15:58:27;18.60;99.90
19880;DHT22;10102;50.828;4.416;2023-07-31T16:00:53;18.60;99.90
19880;DHT22;10102;50.828;4.416;2023-07-31T16:03:18;18.60;99.90
19880;DHT22;10102;50.828;4.416;2023-07-31T16:05:47;18.70;99.90
19880;DHT22;10102;50.828;4.416;2023-07-31T16:08:12;18.70;99.90
19880;DHT22;10102;50.828;4.416;2023-07-31T16:10:38;18.60;99.90
19880;DHT22;10102;50.828;4.416;2023-07-31T16:13:04;18.50;99.90
19880;DHT22;10102;50.828;4.416;2023-07-31T16:15:29;18.20;99.90
19880;DHT22;10102;50.828;4.416;2023-07-31T16:17:55;18.30;99.90
19880;DHT22;10102;50.828;4.416;2023-07-31T16:20:20;18.50;99.90
19880;DHT22;10102;50.828;4.416;2023-07-31T16:22:46;18.50;99.90